Time;durP1;ratioP1;P1;durP2;ratioP2;P2;SDS_P1;SDS_P2;PMS_P1;PMS_P2;Temp;Humidity;BMP_temperature;BMP_pressure;BME280_temperature;BME280_humidity;BME280_pressure;Samples;Min_cycle;Max_cycle;Signal;HPM_P1;HPM_P2
2021/01/27 09:20:28;;;;;;;9.95;5.30;;;3.50;99.90;;;;;;5857911;23;20720;-71
2021/01/27 09:23:00;;;;;;;8.88;4.63;;;3.80;99.90;;;;;;4927504;29;20066;-72
2021/01/27 09:25:27;;;;;;;6.25;3.30;;;4.00;99.90;;;;;;4944620;29;20032;-75
2021/01/27 09:28:00;;;;;;;5.38;4.07;;;4.00;99.90;;;;;;4946519;29;20040;-70
2021/01/27 09:30:26;;;;;;;7.30;4.82;;;4.00;99.90;;;;;;4946600;29;20055;-73
2021/01/27 09:33:30;;;;;;;18.77;4.10;;;4.00;99.90;;;;;;4945150;29;20024;-74
2021/01/27 09:36:23;;;;;;;8.80;4.20;;;4.00;99.90;;;;;;4926866;29;20044;-70
2021/01/27 09:38:54;;;;;;;11.38;4.03;;;4.10;99.90;;;;;;4947406;29;20055;-69
2021/01/27 09:41:31;;;;;;;4.57;2.78;;;4.20;99.90;;;;;;4947776;29;20040;-71
2021/01/27 09:44:00;;;;;;;7.35;3.95;;;4.20;99.90;;;;;;4947243;29;20031;-71
2021/01/27 09:46:33;;;;;;;4.97;3.28;;;4.10;99.90;;;;;;4947368;29;20039;-71
2021/01/27 09:49:10;;;;;;;10.45;4.35;;;4.00;99.90;;;;;;4944990;29;20036;-73
2021/01/27 09:51:37;;;;;;;7.85;3.72;;;3.90;99.90;;;;;;4948212;29;20024;-72
2021/01/27 09:54:04;;;;;;;6.75;3.42;;;3.80;99.90;;;;;;4947610;29;20027;-73
2021/01/27 09:56:31;;;;;;;5.47;3.08;;;3.80;99.90;;;;;;4953540;29;20047;-71
2021/01/27 09:58:59;;;;;;;5.38;3.33;;;3.60;99.90;;;;;;4947879;29;20092;-73
2021/01/27 10:01:29;;;;;;;6.85;2.83;;;3.50;99.90;;;;;;4945069;29;20039;-72
2021/01/27 10:04:13;;;;;;;7.35;3.20;;;3.40;99.90;;;;;;4947143;29;20027;-72
2021/01/27 10:06:45;;;;;;;5.72;3.15;;;3.30;99.90;;;;;;4946239;29;20038;-72
2021/01/27 10:09:23;;;;;;;9.90;3.85;;;3.30;99.90;;;;;;4946674;29;20659;-72
2021/01/27 10:11:58;;;;;;;7.13;2.85;;;3.20;99.90;;;;;;4947520;29;20035;-70
2021/01/27 10:14:29;;;;;;;8.07;3.60;;;3.20;99.90;;;;;;4947024;29;20052;-70
2021/01/27 10:17:01;;;;;;;11.05;3.63;;;3.10;99.90;;;;;;4948006;29;20083;-72
2021/01/27 10:19:30;;;;;;;5.38;3.40;;;3.10;99.90;;;;;;4945789;29;20036;-73
2021/01/27 10:21:59;;;;;;;6.20;3.10;;;3.00;99.90;;;;;;4930271;29;20064;-72
2021/01/27 10:25:22;;;;;;;6.88;3.75;;;2.90;99.90;;;;;;4925705;29;20036;-72
2021/01/27 10:28:04;;;;;;;7.15;3.28;;;2.90;99.90;;;;;;4850494;29;20038;-71
2021/01/27 10:30:44;;;;;;;7.75;3.90;;;2.90;99.90;;;;;;4928417;29;20024;-71
2021/01/27 10:33:32;;;;;;;8.38;4.15;;;2.90;99.90;;;;;;4928510;29;20042;-70
2021/01/27 10:35:59;;;;;;;6.13;2.78;;;2.90;99.90;;;;;;4911172;29;20036;-72
2021/01/27 10:38:26;;;;;;;4.10;2.33;;;2.80;99.90;;;;;;4911392;29;20052;-72
2021/01/27 10:41:11;;;;;;;5.95;3.60;;;2.80;99.90;;;;;;4928084;29;20072;-72
2021/01/27 10:43:37;;;;;;;8.38;4.05;;;2.70;99.90;;;;;;4928640;29;20032;-72
2021/01/27 10:46:28;;;;;;;11.43;3.50;;;2.60;99.90;;;;;;4928286;29;20039;-72
2021/01/27 10:48:54;;;;;;;6.63;3.55;;;2.60;99.90;;;;;;4927612;29;20051;-73
2021/01/27 10:51:21;;;;;;;8.50;3.53;;;2.60;99.90;;;;;;4911084;29;20028;-73
2021/01/27 10:53:46;;;;;;;8.73;3.78;;;2.60;99.90;;;;;;4927499;29;20060;-73
2021/01/27 10:56:14;;;;;;;4.10;2.47;;;2.60;99.90;;;;;;4926470;29;20044;-71
2021/01/27 10:58:40;;;;;;;8.57;4.20;;;2.70;99.90;;;;;;4927409;29;20028;-71
2021/01/27 11:01:05;;;;;;;6.88;3.78;;;2.60;99.90;;;;;;4927251;29;20063;-71
2021/01/27 11:03:31;;;;;;;5.45;3.55;;;2.60;99.90;;;;;;4927877;29;20111;-73
2021/01/27 11:05:57;;;;;;;6.47;4.15;;;2.60;99.90;;;;;;4928275;29;20056;-72
2021/01/27 11:08:28;;;;;;;6.35;3.33;;;2.60;99.90;;;;;;4928067;29;20032;-74
2021/01/27 11:10:58;;;;;;;7.82;3.30;;;2.60;99.90;;;;;;4910661;29;20175;-74
2021/01/27 11:13:25;;;;;;;6.78;3.92;;;2.50;99.90;;;;;;4928038;29;20028;-74
2021/01/27 11:15:52;;;;;;;7.60;3.47;;;2.50;99.90;;;;;;4928125;29;20028;-75
2021/01/27 11:18:18;;;;;;;10.93;3.58;;;2.50;99.90;;;;;;4911125;29;20036;-72
2021/01/27 11:20:46;;;;;;;7.03;3.53;;;2.50;99.90;;;;;;4927652;29;20056;-73
2021/01/27 11:23:11;;;;;;;7.45;3.42;;;2.50;99.90;;;;;;4927647;29;20036;-73
2021/01/27 11:25:37;;;;;;;5.55;3.42;;;2.50;99.90;;;;;;4927947;29;20032;-75
2021/01/27 11:28:02;;;;;;;6.38;2.88;;;2.40;99.90;;;;;;4927776;29;20047;-73
2021/01/27 11:30:29;;;;;;;7.40;3.70;;;2.40;99.90;;;;;;4927700;29;20039;-75
2021/01/27 11:32:57;;;;;;;5.53;2.85;;;2.40;99.90;;;;;;4927688;29;20079;-75
2021/01/27 11:35:24;;;;;;;7.20;3.13;;;2.40;99.90;;;;;;4926688;29;20043;-76
2021/01/27 11:37:51;;;;;;;7.18;3.53;;;2.40;99.90;;;;;;4910524;29;20400;-75
2021/01/27 11:40:23;;;;;;;10.63;4.95;;;2.40;99.90;;;;;;4927408;29;20064;-75
2021/01/27 11:42:49;;;;;;;7.28;4.05;;;2.40;99.90;;;;;;4931831;29;20032;-74
2021/01/27 11:45:16;;;;;;;6.53;3.80;;;2.40;99.90;;;;;;4914243;29;20028;-75
2021/01/27 11:47:42;;;;;;;6.03;3.05;;;2.40;99.90;;;;;;4914837;29;20131;-75
2021/01/27 11:50:08;;;;;;;7.90;3.80;;;2.40;99.90;;;;;;4914247;29;20024;-74
2021/01/27 11:52:35;;;;;;;9.10;3.97;;;2.40;99.90;;;;;;4931170;29;20036;-75
2021/01/27 11:55:00;;;;;;;12.15;4.38;;;2.30;99.90;;;;;;4907623;29;20036;-75
2021/01/27 11:57:26;;;;;;;7.03;3.53;;;2.40;99.90;;;;;;4912828;29;20024;-75
2021/01/27 11:59:51;;;;;;;5.65;1.95;;;2.40;99.90;;;;;;4895394;29;20129;-76
2021/01/27 12:02:17;;;;;;;8.32;3.20;;;2.40;99.90;;;;;;4895801;29;20024;-73
2021/01/27 12:04:43;;;;;;;10.35;3.28;;;2.40;99.90;;;;;;4912776;29;20039;-76
2021/01/27 12:07:08;;;;;;;8.45;3.65;;;2.40;99.90;;;;;;4909976;29;20158;-74
2021/01/27 12:09:35;;;;;;;6.22;3.38;;;2.30;99.90;;;;;;4912188;29;20029;-71
2021/01/27 12:12:03;;;;;;;4.53;3.15;;;2.30;99.90;;;;;;4912277;29;20020;-79
2021/01/27 12:14:29;;;;;;;5.18;2.88;;;2.30;99.90;;;;;;4912325;29;20028;-74
2021/01/27 12:16:55;;;;;;;5.45;3.15;;;2.30;99.90;;;;;;4912540;29;20036;-76
2021/01/27 12:19:21;;;;;;;9.55;4.70;;;2.40;99.90;;;;;;4895054;29;20037;-74
2021/01/27 12:21:47;;;;;;;12.70;6.38;;;2.30;99.90;;;;;;4911517;29;20435;-75
2021/01/27 12:24:13;;;;;;;5.57;3.13;;;2.30;99.90;;;;;;4911895;29;20037;-74
2021/01/27 12:26:39;;;;;;;5.90;3.47;;;2.30;99.90;;;;;;4894724;29;20033;-74
2021/01/27 12:29:05;;;;;;;10.30;4.78;;;2.30;99.90;;;;;;4911447;29;20092;-75
2021/01/27 12:31:30;;;;;;;9.98;5.43;;;2.30;99.90;;;;;;4912038;29;20033;-74
2021/01/27 12:33:56;;;;;;;7.95;4.60;;;2.40;99.90;;;;;;4911734;29;20092;-74
2021/01/27 12:36:22;;;;;;;11.88;4.90;;;2.40;99.90;;;;;;4894436;29;20058;-72
2021/01/27 12:38:47;;;;;;;12.48;5.65;;;2.40;99.90;;;;;;4911491;29;20033;-74
2021/01/27 12:41:13;;;;;;;8.88;4.03;;;2.50;99.90;;;;;;4911532;29;20107;-74
2021/01/27 12:43:39;;;;;;;16.13;6.22;;;2.50;99.90;;;;;;4894297;29;20457;-74
2021/01/27 12:46:04;;;;;;;11.73;5.30;;;2.40;99.90;;;;;;4907846;29;20032;-73
2021/01/27 12:48:31;;;;;;;6.80;4.38;;;2.50;99.90;;;;;;4930545;29;20107;-74
2021/01/27 12:50:58;;;;;;;7.82;4.05;;;2.50;99.90;;;;;;4930409;29;20024;-72
2021/01/27 12:53:25;;;;;;;8.32;4.63;;;2.50;99.90;;;;;;4930501;29;20031;-75
2021/01/27 12:55:55;;;;;;;11.60;4.55;;;2.50;99.90;;;;;;4930036;29;20477;-75
2021/01/27 12:58:22;;;;;;;11.02;6.20;;;2.40;99.90;;;;;;4930691;29;20036;-74
2021/01/27 13:00:48;;;;;;;7.60;4.38;;;2.40;99.90;;;;;;4930356;29;20066;-74
2021/01/27 13:03:13;;;;;;;8.50;4.93;;;2.40;99.90;;;;;;4913433;29;20032;-74
2021/01/27 13:05:39;;;;;;;7.65;4.28;;;2.40;99.90;;;;;;4930421;29;21122;-75
2021/01/27 13:08:05;;;;;;;8.57;4.15;;;2.40;99.90;;;;;;4930002;29;20519;-74
2021/01/27 13:10:31;;;;;;;7.88;3.92;;;2.40;99.90;;;;;;4929569;29;20116;-74
2021/01/27 13:12:59;;;;;;;17.42;5.10;;;2.40;99.90;;;;;;4912758;29;20109;-74
2021/01/27 13:15:25;;;;;;;7.38;4.85;;;2.40;99.90;;;;;;4930081;29;20051;-74
2021/01/27 13:17:52;;;;;;;9.48;4.53;;;2.40;99.90;;;;;;4912782;29;20456;-73
2021/01/27 13:20:21;;;;;;;6.88;3.70;;;2.40;99.90;;;;;;4912773;29;20056;-73
2021/01/27 13:22:47;;;;;;;6.60;3.72;;;2.40;99.90;;;;;;4929422;29;20056;-74
2021/01/27 13:25:19;;;;;;;6.75;3.78;;;2.40;99.90;;;;;;4912564;29;20036;-74
2021/01/27 13:27:45;;;;;;;13.38;4.63;;;2.50;99.90;;;;;;4912643;29;20434;-74
2021/01/27 13:30:12;;;;;;;8.02;4.53;;;2.50;99.90;;;;;;4912510;29;20039;-73
2021/01/27 13:32:38;;;;;;;11.35;5.22;;;2.50;99.90;;;;;;4912090;29;20043;-72
2021/01/27 13:35:04;;;;;;;13.02;4.40;;;2.50;99.90;;;;;;4929613;29;20036;-73
2021/01/27 13:37:30;;;;;;;7.40;4.30;;;2.50;99.90;;;;;;4929394;29;20032;-74
2021/01/27 13:39:55;;;;;;;9.93;5.32;;;2.60;99.90;;;;;;4912374;29;20043;-74
2021/01/27 13:42:21;;;;;;;9.82;4.05;;;2.60;99.90;;;;;;4929923;29;20036;-74
2021/01/27 13:44:47;;;;;;;10.05;4.85;;;2.60;99.90;;;;;;4929489;29;20111;-73
2021/01/27 13:47:12;;;;;;;8.90;5.07;;;2.50;99.90;;;;;;4928722;29;20035;-73
2021/01/27 13:49:38;;;;;;;9.13;5.43;;;2.50;99.90;;;;;;4929443;29;20121;-73
2021/01/27 13:52:04;;;;;;;14.48;4.85;;;2.60;99.90;;;;;;4928367;29;20025;-74
2021/01/27 13:54:29;;;;;;;10.38;5.10;;;2.50;99.90;;;;;;4929053;29;20032;-75
2021/01/27 13:56:55;;;;;;;10.07;5.13;;;2.50;99.90;;;;;;4911745;29;20084;-73
2021/01/27 13:59:21;;;;;;;11.45;5.78;;;2.50;99.90;;;;;;4928594;29;20032;-76
2021/01/27 14:01:47;;;;;;;8.63;4.00;;;2.50;99.90;;;;;;4928642;29;20146;-73
2021/01/27 14:04:13;;;;;;;7.80;4.45;;;2.40;99.90;;;;;;4928648;29;20112;-74
2021/01/27 14:06:39;;;;;;;14.05;5.65;;;2.50;99.90;;;;;;4928709;29;20032;-73
2021/01/27 14:09:05;;;;;;;7.70;4.85;;;2.50;99.90;;;;;;4913977;29;20028;-74
2021/01/27 14:11:31;;;;;;;8.77;5.07;;;2.50;99.90;;;;;;4918738;29;20036;-73
2021/01/27 14:13:57;;;;;;;9.85;5.25;;;2.50;99.90;;;;;;4915289;29;20039;-75
2021/01/27 14:16:23;;;;;;;8.45;4.28;;;2.50;99.90;;;;;;4913339;29;20040;-73
2021/01/27 14:18:50;;;;;;;6.60;3.80;;;2.50;99.90;;;;;;4922961;29;20405;-74
2021/01/27 14:21:17;;;;;;;9.30;3.80;;;2.60;99.90;;;;;;4928084;29;20120;-73
2021/01/27 14:23:42;;;;;;;10.40;5.82;;;2.60;99.90;;;;;;4928721;29;20043;-74
2021/01/27 14:26:08;;;;;;;7.32;4.28;;;2.60;99.90;;;;;;4911191;29;20088;-73
2021/01/27 14:28:34;;;;;;;8.90;5.07;;;2.60;99.90;;;;;;4928536;29;20032;-74
2021/01/27 14:31:00;;;;;;;17.40;6.70;;;2.50;99.90;;;;;;4911448;29;20035;-73
2021/01/27 14:33:25;;;;;;;9.48;5.60;;;2.60;99.90;;;;;;4914010;29;20032;-74
2021/01/27 14:35:52;;;;;;;8.98;4.43;;;2.60;99.90;;;;;;4908334;29;20024;-73
2021/01/27 14:38:19;;;;;;;10.23;5.07;;;2.60;99.90;;;;;;4928199;29;20099;-73
2021/01/27 14:40:45;;;;;;;9.30;5.20;;;2.60;99.90;;;;;;4927861;29;20392;-73
2021/01/27 14:43:12;;;;;;;9.13;5.25;;;2.50;99.90;;;;;;4928018;29;20039;-72
2021/01/27 14:45:37;;;;;;;16.10;7.22;;;2.60;99.90;;;;;;4926135;29;20105;-73
2021/01/27 14:48:05;;;;;;;7.93;4.47;;;2.60;99.90;;;;;;4892018;29;20052;-74
2021/01/27 14:50:31;;;;;;;9.48;5.32;;;2.60;99.90;;;;;;4908955;29;20032;-72
2021/01/27 14:52:56;;;;;;;9.07;5.35;;;2.60;99.90;;;;;;4908868;29;20033;-72
2021/01/27 14:55:23;;;;;;;6.57;4.13;;;2.60;99.90;;;;;;4894087;29;20039;-75
2021/01/27 14:57:48;;;;;;;14.73;6.90;;;2.60;99.90;;;;;;4927490;29;20373;-73
2021/01/27 15:00:15;;;;;;;11.77;5.30;;;2.60;99.90;;;;;;4910550;29;20032;-72
2021/01/27 15:02:40;;;;;;;7.68;4.82;;;2.60;99.90;;;;;;4927915;29;20036;-72
2021/01/27 15:05:07;;;;;;;11.23;5.35;;;2.60;99.90;;;;;;4927860;29;20079;-74
2021/01/27 15:07:32;;;;;;;9.63;5.38;;;2.60;99.90;;;;;;4910602;29;20028;-74
2021/01/27 15:09:58;;;;;;;9.88;5.22;;;2.50;99.90;;;;;;4909973;29;20032;-72
2021/01/27 15:12:25;;;;;;;9.27;5.68;;;2.60;99.90;;;;;;4934348;29;20044;-73
2021/01/27 15:14:53;;;;;;;9.57;5.82;;;2.60;99.90;;;;;;4915256;29;20480;-72
2021/01/27 15:17:19;;;;;;;12.77;5.55;;;2.60;99.90;;;;;;4928438;29;20032;-73
2021/01/27 15:19:44;;;;;;;8.63;5.25;;;2.60;99.90;;;;;;4910895;29;20050;-73
2021/01/27 15:22:10;;;;;;;11.35;6.45;;;2.60;99.90;;;;;;4927412;29;20421;-74
2021/01/27 15:24:35;;;;;;;7.38;4.65;;;2.60;99.90;;;;;;4910408;29;20035;-74
2021/01/27 15:27:01;;;;;;;11.60;5.88;;;2.60;99.90;;;;;;4927441;29;20040;-74
2021/01/27 15:29:29;;;;;;;12.40;5.63;;;2.60;99.90;;;;;;4928482;29;20032;-75
2021/01/27 15:31:55;;;;;;;11.93;6.55;;;2.60;99.90;;;;;;4928187;29;20035;-73
2021/01/27 15:34:22;;;;;;;13.07;6.00;;;2.60;99.90;;;;;;4928612;29;20503;-73
2021/01/27 15:36:47;;;;;;;13.70;6.10;;;2.60;99.90;;;;;;4911105;29;20032;-74
2021/01/27 15:39:13;;;;;;;13.02;6.60;;;2.60;99.90;;;;;;4927705;29;20127;-73
2021/01/27 15:41:39;;;;;;;11.20;5.55;;;2.70;99.90;;;;;;4928153;29;20085;-73
2021/01/27 15:44:05;;;;;;;9.38;5.35;;;2.70;99.90;;;;;;4927380;29;20032;-74
2021/01/27 15:46:30;;;;;;;12.00;6.80;;;2.70;99.90;;;;;;4910754;29;20115;-74
2021/01/27 15:48:56;;;;;;;12.70;6.20;;;2.70;99.90;;;;;;4910630;29;20051;-74
2021/01/27 15:51:23;;;;;;;8.77;5.70;;;2.60;99.90;;;;;;4927539;29;20028;-74
2021/01/27 15:53:48;;;;;;;17.27;7.50;;;2.70;99.90;;;;;;4927866;29;20046;-74
2021/01/27 15:56:14;;;;;;;12.63;7.20;;;2.60;99.90;;;;;;4910196;29;20033;-75
2021/01/27 15:58:39;;;;;;;9.85;5.93;;;2.70;99.90;;;;;;4910084;29;20043;-77
2021/01/27 16:01:05;;;;;;;14.45;7.22;;;2.60;99.90;;;;;;4909972;29;20040;-75
2021/01/27 16:03:31;;;;;;;16.80;6.97;;;2.60;99.90;;;;;;4927256;29;20024;-75
2021/01/27 16:05:56;;;;;;;11.15;6.20;;;2.60;99.90;;;;;;4926975;29;20036;-77
2021/01/27 16:08:22;;;;;;;10.90;7.38;;;2.60;99.90;;;;;;4927270;29;20095;-76
2021/01/27 16:10:48;;;;;;;17.45;8.82;;;2.60;99.90;;;;;;4927068;29;20515;-76
2021/01/27 16:13:14;;;;;;;15.85;7.22;;;2.70;99.90;;;;;;4926662;29;20028;-76
2021/01/27 16:15:40;;;;;;;13.75;7.68;;;2.70;99.90;;;;;;4910030;29;20100;-76
2021/01/27 16:18:12;;;;;;;9.32;5.25;;;2.70;99.90;;;;;;4926486;29;20028;-76
2021/01/27 16:20:38;;;;;;;19.63;7.05;;;2.70;99.90;;;;;;4924317;29;20062;-76
2021/01/27 16:23:04;;;;;;;12.80;6.78;;;2.70;99.90;;;;;;4908486;29;20124;-77
2021/01/27 16:25:33;;;;;;;15.88;6.93;;;2.70;99.90;;;;;;4909070;29;20032;-76
2021/01/27 16:28:00;;;;;;;16.90;7.40;;;2.70;99.90;;;;;;4928195;29;20056;-78
2021/01/27 16:30:30;;;;;;;18.40;9.57;;;2.70;99.90;;;;;;4912592;29;20468;-77
2021/01/27 16:32:57;;;;;;;16.75;9.02;;;2.70;99.90;;;;;;4929155;29;20074;-76
2021/01/27 16:35:28;;;;;;;19.08;9.88;;;2.70;99.90;;;;;;4911031;29;20028;-78
2021/01/27 16:37:55;;;;;;;18.42;9.18;;;2.70;99.90;;;;;;4911241;29;20032;-77
2021/01/27 16:40:23;;;;;;;13.15;6.63;;;2.70;99.90;;;;;;4929508;29;20040;-77
2021/01/27 16:42:51;;;;;;;11.60;6.13;;;2.70;99.90;;;;;;4912630;29;20036;-76
2021/01/27 16:45:19;;;;;;;15.63;7.40;;;2.70;99.90;;;;;;4928850;29;20028;-76
2021/01/27 16:47:46;;;;;;;15.27;7.90;;;2.70;99.90;;;;;;4911639;29;20028;-75
2021/01/27 16:50:13;;;;;;;14.43;6.28;;;2.70;99.90;;;;;;4912492;29;20395;-75
2021/01/27 16:52:39;;;;;;;11.38;6.50;;;2.70;99.90;;;;;;4912305;29;20034;-76
2021/01/27 16:55:06;;;;;;;16.58;8.73;;;2.70;99.90;;;;;;4929480;29;20035;-77
2021/01/27 16:57:31;;;;;;;15.55;6.78;;;2.70;99.90;;;;;;4929987;29;20035;-77
2021/01/27 16:59:57;;;;;;;15.35;9.00;;;2.70;99.90;;;;;;4930077;29;20040;-77
2021/01/27 17:02:24;;;;;;;17.38;7.20;;;2.70;99.90;;;;;;4930199;29;20028;-77
2021/01/27 17:04:50;;;;;;;15.27;8.32;;;2.70;99.90;;;;;;4930511;29;20055;-77
2021/01/27 17:07:16;;;;;;;14.75;6.70;;;2.80;99.90;;;;;;4929787;29;20024;-78
2021/01/27 17:09:41;;;;;;;12.68;7.57;;;2.70;99.90;;;;;;4913181;29;20040;-77
2021/01/27 17:12:08;;;;;;;14.93;8.68;;;2.70;99.90;;;;;;4913231;29;20036;-77
2021/01/27 17:14:34;;;;;;;12.40;6.70;;;2.80;99.90;;;;;;4929690;29;20496;-78
2021/01/27 17:16:59;;;;;;;16.98;7.63;;;2.80;99.90;;;;;;4912113;29;20058;-78
2021/01/27 17:19:25;;;;;;;12.40;6.45;;;2.80;99.90;;;;;;4929474;29;20464;-77
2021/01/27 17:21:51;;;;;;;16.40;7.25;;;2.80;99.90;;;;;;4929734;29;20051;-78
2021/01/27 17:24:19;;;;;;;14.93;8.02;;;2.80;99.90;;;;;;4929884;29;20028;-77
2021/01/27 17:26:46;;;;;;;13.25;7.07;;;2.80;99.90;;;;;;4912806;29;20059;-78
2021/01/27 17:29:12;;;;;;;15.00;7.10;;;2.80;99.90;;;;;;4912439;29;20036;-77
2021/01/27 17:31:38;;;;;;;16.42;7.63;;;2.80;99.90;;;;;;4929676;29;20123;-77
2021/01/27 17:34:04;;;;;;;12.05;6.18;;;2.80;99.90;;;;;;4929652;29;20039;-76
2021/01/27 17:36:30;;;;;;;13.63;6.78;;;2.80;99.90;;;;;;4928882;29;20087;-78
2021/01/27 17:38:56;;;;;;;12.70;6.45;;;2.80;99.90;;;;;;4911585;29;20119;-78
2021/01/27 17:41:22;;;;;;;18.23;7.38;;;2.80;99.90;;;;;;4912645;29;20480;-78
2021/01/27 17:43:52;;;;;;;11.07;6.60;;;2.80;99.90;;;;;;4929405;29;20028;-77
2021/01/27 17:46:18;;;;;;;12.55;7.50;;;2.80;99.90;;;;;;4929600;29;20056;-77
2021/01/27 17:48:44;;;;;;;14.68;6.78;;;2.90;99.90;;;;;;4929191;29;20082;-77
2021/01/27 17:51:10;;;;;;;13.73;7.60;;;2.90;99.90;;;;;;4927842;29;20032;-77
2021/01/27 17:53:37;;;;;;;10.45;5.80;;;2.90;99.90;;;;;;4928532;29;20024;-78
2021/01/27 17:56:03;;;;;;;11.90;5.68;;;2.90;99.90;;;;;;4911531;29;20024;-76
2021/01/27 17:58:28;;;;;;;21.42;8.10;;;2.90;99.90;;;;;;4912243;29;20088;-78
2021/01/27 18:00:55;;;;;;;11.20;5.63;;;2.90;99.90;;;;;;4929473;29;20044;-77
2021/01/27 18:03:21;;;;;;;16.58;7.68;;;2.90;99.90;;;;;;4928871;29;20056;-78
2021/01/27 18:05:47;;;;;;;14.02;8.73;;;2.90;99.90;;;;;;4928863;29;20032;-76
2021/01/27 18:08:18;;;;;;;15.88;8.40;;;2.90;99.90;;;;;;4929118;29;20426;-77
2021/01/27 18:10:44;;;;;;;21.65;8.35;;;3.00;99.90;;;;;;4928972;29;20036;-77
2021/01/27 18:13:10;;;;;;;16.73;7.82;;;3.00;99.90;;;;;;4911716;29;20032;-76
2021/01/27 18:15:36;;;;;;;22.35;9.15;;;3.00;99.90;;;;;;4911230;29;20032;-76
2021/01/27 18:18:02;;;;;;;13.70;7.43;;;3.00;99.90;;;;;;4927806;29;20032;-77
2021/01/27 18:20:31;;;;;;;21.92;7.05;;;3.10;99.90;;;;;;4927184;29;20107;-77
2021/01/27 18:22:57;;;;;;;13.82;6.65;;;3.10;99.90;;;;;;4928884;29;20024;-77
2021/01/27 18:25:44;;;;;;;18.17;7.35;;;3.10;99.90;;;;;;4928379;29;20024;-77
2021/01/27 18:28:13;;;;;;;17.55;9.52;;;3.10;99.90;;;;;;4928621;29;20040;-76
2021/01/27 18:30:39;;;;;;;23.60;9.27;;;3.10;99.90;;;;;;4911423;29;20039;-76
2021/01/27 18:33:06;;;;;;;21.73;8.65;;;3.20;99.90;;;;;;4928100;29;20052;-76
2021/01/27 18:35:37;;;;;;;15.95;8.55;;;3.20;99.90;;;;;;4928623;29;20028;-76
2021/01/27 18:38:05;;;;;;;17.88;9.63;;;3.20;99.90;;;;;;4928629;29;20039;-76
2021/01/27 18:40:31;;;;;;;21.10;9.27;;;3.20;99.90;;;;;;4928285;29;20032;-77
2021/01/27 18:42:57;;;;;;;17.30;9.00;;;3.20;99.90;;;;;;4928701;29;20135;-76
2021/01/27 18:45:26;;;;;;;15.80;9.52;;;3.30;99.90;;;;;;4911552;29;20099;-76
2021/01/27 18:47:58;;;;;;;17.05;7.97;;;3.30;99.90;;;;;;4926394;29;20032;-75
2021/01/27 18:50:25;;;;;;;15.50;8.45;;;3.30;99.90;;;;;;4905825;29;20043;-75
2021/01/27 18:52:52;;;;;;;17.83;7.70;;;3.30;99.90;;;;;;4924670;29;20028;-76
2021/01/27 18:55:20;;;;;;;17.40;8.93;;;3.40;99.90;;;;;;4918539;29;20028;-76
2021/01/27 18:58:07;;;;;;;15.20;8.38;;;3.40;99.90;;;;;;4915529;29;20040;-75
2021/01/27 19:00:46;;;;;;;18.50;7.70;;;3.40;99.90;;;;;;4924213;29;20040;-75
2021/01/27 19:03:16;;;;;;;17.50;7.95;;;3.40;99.90;;;;;;4926514;29;20111;-76
2021/01/27 19:05:42;;;;;;;13.85;7.72;;;3.50;99.90;;;;;;4927073;29;20449;-75
2021/01/27 19:08:10;;;;;;;22.63;6.80;;;3.50;99.90;;;;;;4932022;29;20075;-75
2021/01/27 19:10:37;;;;;;;13.10;7.97;;;3.50;99.90;;;;;;4928680;29;20122;-75
2021/01/27 19:13:04;;;;;;;19.42;7.93;;;3.50;99.90;;;;;;4927759;29;20036;-76
2021/01/27 19:15:40;;;;;;;28.17;7.90;;;3.60;99.90;;;;;;4926584;29;20115;-75
2021/01/27 19:18:14;;;;;;;13.88;7.47;;;3.60;99.90;;;;;;4924740;29;20060;-76
2021/01/27 19:20:43;;;;;;;20.73;7.07;;;3.60;99.90;;;;;;4925408;29;20052;-76
2021/01/27 19:23:09;;;;;;;19.70;7.70;;;3.70;99.90;;;;;;4927370;29;20032;-75
2021/01/27 19:25:35;;;;;;;11.63;6.55;;;3.70;99.90;;;;;;4927528;29;20358;-73
2021/01/27 19:28:04;;;;;;;15.95;6.65;;;3.70;99.90;;;;;;4927332;29;20035;-78
2021/01/27 19:30:31;;;;;;;14.52;6.63;;;3.80;99.90;;;;;;4927525;29;20473;-77
2021/01/27 19:32:57;;;;;;;11.35;6.18;;;3.80;99.90;;;;;;4927097;29;20087;-75
2021/01/27 19:35:27;;;;;;;13.63;6.30;;;3.80;99.90;;;;;;4927235;29;20040;-75
2021/01/27 19:38:02;;;;;;;15.45;6.60;;;3.90;99.90;;;;;;4909991;29;20068;-76
2021/01/27 19:40:29;;;;;;;18.05;7.22;;;3.90;99.90;;;;;;4927345;29;20044;-74
2021/01/27 19:42:56;;;;;;;11.07;6.13;;;3.90;99.90;;;;;;4926959;29;20032;-76
2021/01/27 19:45:27;;;;;;;21.20;8.27;;;4.00;99.90;;;;;;4910655;29;20036;-74
2021/01/27 19:47:57;;;;;;;16.20;7.55;;;4.00;99.90;;;;;;4896282;29;20055;-74
2021/01/27 19:50:27;;;;;;;17.45;6.20;;;4.00;99.90;;;;;;4908581;29;20442;-75
2021/01/27 19:52:53;;;;;;;16.65;7.65;;;4.10;99.90;;;;;;4908610;29;20036;-74
2021/01/27 19:55:20;;;;;;;16.80;7.30;;;4.10;99.90;;;;;;4891285;29;20029;-74
2021/01/27 19:57:48;;;;;;;12.45;6.35;;;4.20;99.90;;;;;;4923173;29;20028;-75
2021/01/27 20:00:16;;;;;;;12.70;6.70;;;4.20;99.90;;;;;;4923204;29;20040;-74
2021/01/27 20:02:42;;;;;;;15.68;6.30;;;4.20;99.90;;;;;;4926910;29;20557;-76
2021/01/27 20:05:10;;;;;;;13.02;6.38;;;4.20;99.90;;;;;;4913767;29;20469;-74
2021/01/27 20:07:35;;;;;;;17.38;7.35;;;4.30;99.90;;;;;;4930136;29;20080;-74
2021/01/27 20:10:03;;;;;;;18.83;6.13;;;4.30;99.90;;;;;;4913590;29;20029;-73
2021/01/27 20:12:32;;;;;;;12.52;4.95;;;4.30;99.90;;;;;;4930954;29;20032;-75
2021/01/27 20:14:58;;;;;;;15.07;5.80;;;4.30;99.90;;;;;;4930716;29;20028;-74
2021/01/27 20:17:24;;;;;;;16.10;7.28;;;4.40;99.90;;;;;;4930840;29;20067;-74
2021/01/27 20:19:49;;;;;;;14.23;6.47;;;4.40;99.90;;;;;;4930086;29;20127;-73
2021/01/27 20:22:15;;;;;;;17.50;6.57;;;4.40;99.90;;;;;;4927422;29;20060;-74
2021/01/27 20:24:41;;;;;;;16.83;6.93;;;4.40;99.90;;;;;;4929275;29;20039;-74
2021/01/27 20:27:06;;;;;;;13.30;6.72;;;4.40;99.90;;;;;;4930217;29;20028;-75
2021/01/27 20:29:32;;;;;;;13.82;5.93;;;4.40;99.90;;;;;;4928692;29;20137;-74
2021/01/27 20:31:57;;;;;;;13.82;6.30;;;4.40;99.90;;;;;;4929678;29;20054;-74
2021/01/27 20:34:25;;;;;;;12.02;6.60;;;4.40;99.90;;;;;;4929752;29;20105;-75
2021/01/27 20:36:52;;;;;;;13.88;6.82;;;4.50;99.90;;;;;;4929375;29;20385;-73
2021/01/27 20:39:18;;;;;;;15.43;6.57;;;4.40;99.90;;;;;;4929519;29;20024;-74
2021/01/27 20:41:45;;;;;;;15.38;7.28;;;4.50;99.90;;;;;;4930345;29;20500;-74
2021/01/27 20:44:11;;;;;;;17.70;7.22;;;4.50;99.90;;;;;;4930117;29;20020;-74
2021/01/27 20:46:37;;;;;;;15.68;6.38;;;4.50;99.90;;;;;;4930824;29;20024;-74
2021/01/27 20:49:02;;;;;;;14.20;5.95;;;4.50;99.90;;;;;;4930628;29;20036;-73
2021/01/27 20:51:28;;;;;;;18.73;8.13;;;4.40;99.90;;;;;;4930207;29;20062;-74
2021/01/27 20:53:54;;;;;;;19.38;6.95;;;4.50;99.90;;;;;;4930698;29;20107;-73
2021/01/27 20:56:21;;;;;;;13.10;6.18;;;4.50;99.90;;;;;;4928678;29;20428;-74
2021/01/27 20:58:47;;;;;;;11.45;6.05;;;4.50;99.90;;;;;;4929210;29;20123;-73
2021/01/27 21:01:20;;;;;;;10.77;5.85;;;4.50;99.90;;;;;;4928410;29;20539;-75
2021/01/27 21:03:46;;;;;;;16.25;6.63;;;4.40;99.90;;;;;;4929810;29;20440;-73
2021/01/27 21:06:12;;;;;;;8.70;5.13;;;4.50;99.90;;;;;;4930157;29;20028;-74
2021/01/27 21:08:38;;;;;;;9.13;4.93;;;4.60;99.90;;;;;;4930181;29;20039;-73
2021/01/27 21:11:04;;;;;;;12.70;6.22;;;4.60;99.90;;;;;;4929587;29;20044;-74
2021/01/27 21:13:30;;;;;;;11.55;5.63;;;4.60;99.90;;;;;;4928601;29;20032;-74
2021/01/27 21:15:56;;;;;;;12.98;6.43;;;4.60;99.90;;;;;;4930359;29;20150;-74
2021/01/27 21:18:22;;;;;;;11.80;6.38;;;4.60;99.90;;;;;;4930052;29;20177;-74
2021/01/27 21:20:49;;;;;;;12.55;6.40;;;4.60;99.90;;;;;;4929519;29;20044;-74
2021/01/27 21:23:16;;;;;;;13.52;6.15;;;4.60;99.90;;;;;;4929857;29;20041;-73
2021/01/27 21:25:42;;;;;;;12.07;5.82;;;4.60;99.90;;;;;;4929844;29;20046;-74
2021/01/27 21:28:08;;;;;;;10.93;5.28;;;4.60;99.90;;;;;;4928106;29;20488;-74
2021/01/27 21:30:37;;;;;;;11.57;6.15;;;4.60;99.90;;;;;;4929576;29;20087;-74
2021/01/27 21:33:03;;;;;;;9.98;4.90;;;4.80;99.90;;;;;;4928940;29;20036;-74
2021/01/27 21:35:30;;;;;;;14.95;6.28;;;4.60;99.90;;;;;;4912633;29;20125;-74
2021/01/27 21:37:55;;;;;;;15.52;6.10;;;4.70;99.90;;;;;;4929581;29;20032;-74
2021/01/27 21:40:23;;;;;;;11.35;6.22;;;4.70;99.90;;;;;;4929196;29;20135;-73
2021/01/27 21:42:49;;;;;;;8.65;5.07;;;4.70;99.90;;;;;;4929655;29;20433;-75
2021/01/27 21:45:29;;;;;;;12.18;4.97;;;4.70;99.90;;;;;;4912172;29;20039;-74
2021/01/27 21:47:55;;;;;;;17.23;6.35;;;4.70;99.90;;;;;;4929490;29;20401;-75
2021/01/27 21:50:22;;;;;;;14.25;6.30;;;4.70;99.90;;;;;;4929675;29;20064;-74
2021/01/27 21:52:47;;;;;;;12.07;6.63;;;4.70;99.90;;;;;;4929135;29;20055;-72
2021/01/27 21:55:15;;;;;;;11.70;6.40;;;4.70;99.90;;;;;;4929210;29;20031;-74
2021/01/27 21:57:42;;;;;;;9.88;5.35;;;4.90;99.90;;;;;;4929367;29;20056;-73
2021/01/27 22:00:11;;;;;;;11.27;5.28;;;4.80;99.90;;;;;;4928994;29;20051;-74
2021/01/27 22:02:36;;;;;;;14.38;6.55;;;4.80;99.90;;;;;;4929085;29;20111;-73
2021/01/27 22:05:04;;;;;;;9.57;5.30;;;4.90;99.90;;;;;;4912224;29;20033;-74
2021/01/27 22:07:31;;;;;;;9.23;4.10;;;4.80;99.90;;;;;;4928736;29;20043;-74
2021/01/27 22:09:57;;;;;;;12.00;5.63;;;4.80;99.90;;;;;;4929251;29;20043;-73
2021/01/27 22:12:23;;;;;;;11.38;5.43;;;4.80;99.90;;;;;;4929241;29;20071;-74